Weather at Kassel-Calden Airport

Public forecast

Using degrees Celsius for public forecast. Weather courtesy of forecast.io.

Current aviation weather report (METAR) for Kassel-Calden Airport

Report is more than 6 hours old.

Retrieved 2022/09/17 18:20 UTC (10 days ago):

EDVK 171820Z 27008KT 9999 FEW010 SCT037 BKN049 09/06 Q1011

Aviation forecast (TAF) for Kassel-Calden Airport

Forecast is more than 12 hours old.

Retrieved 2011/03/23 07:09 UTC (12 years ago):

TAF COR EDVK 230655Z 2307/2321 30002KT 3500 BR SCT025 PROB30 TEMPO 2307/2309 1400 BCFG BECMG 2307/2310 01007KT 8000